Terminal Aerodrome Forecast
Issued by NWS

Home | Current Version | Previous Version | Text Only | Print | Product List | Glossary On
Versions: 1 2 3 4 5 6 7 8 9 10 11 12 13 14 15
000
FTUS42 KTBW 252133 AAA
TAFRSW
TAF AMD
KRSW 252133Z 2522/2618 20012KT P6SM VCTS BKN050CB BKN150
      TEMPO 2522/2524 VRB15G25KT 4SM TSRA BKN030CB
     FM260100 07006KT P6SM FEW025 SCT100 SCT250
     FM261500 13008KT P6SM SCT040=

USA.gov is the U.S. government's official web portal to all federal, state and local government web resources and services.